Time;durP1;ratioP1;P1;durP2;ratioP2;P2;SDS_P1;SDS_P2;PMS_P1;PMS_P2;Temp;Humidity;BMP_temperature;BMP_pressure;BME280_temperature;BME280_humidity;BME280_pressure;Samples;Min_cycle;Max_cycle;Signal;HPM_P1;HPM_P2
2022/07/26 00:00:30;;;;;;;10.20;2.08;;;;;;;19.75;57.85;100923.41;5094317;28;20518;-60
2022/07/26 00:02:56;;;;;;;8.90;1.95;;;;;;;19.68;58.04;100931.47;5094322;28;20127;-60
2022/07/26 00:05:23;;;;;;;10.32;1.98;;;;;;;19.67;57.97;100934.38;5093762;28;20533;-61
2022/07/26 00:08:09;;;;;;;10.93;1.90;;;;;;;19.61;58.43;100935.19;5094169;28;20370;-60
2022/07/26 00:10:39;;;;;;;13.55;2.20;;;;;;;19.60;58.42;100938.94;5094250;28;20135;-61
2022/07/26 00:13:06;;;;;;;12.23;2.05;;;;;;;19.53;58.55;100930.88;5094117;28;20040;-61
2022/07/26 00:15:33;;;;;;;7.28;1.92;;;;;;;19.54;58.97;100936.03;5094102;28;20033;-60
2022/07/26 00:18:00;;;;;;;10.93;2.13;;;;;;;19.32;59.36;100932.75;5094189;28;20044;-60
2022/07/26 00:20:26;;;;;;;9.75;2.47;;;;;;;19.33;59.80;100934.38;5093695;28;20036;-60
2022/07/26 00:22:53;;;;;;;12.68;2.10;;;;;;;19.24;59.98;100930.25;5093964;28;20043;-60
2022/07/26 00:25:20;;;;;;;16.65;2.30;;;;;;;19.27;60.25;100937.91;5094103;28;20081;-60
2022/07/26 00:27:47;;;;;;;8.98;2.13;;;;;;;19.19;60.67;100935.41;5093860;28;20406;-60
2022/07/26 00:30:14;;;;;;;9.70;2.30;;;;;;;19.13;60.76;100928.19;5093195;28;20048;-60
2022/07/26 00:32:41;;;;;;;12.68;2.17;;;;;;;19.17;60.99;100927.59;5093283;28;20485;-61
2022/07/26 00:35:08;;;;;;;12.15;2.25;;;;;;;19.03;61.41;100917.84;5093825;28;20040;-60
2022/07/26 00:37:35;;;;;;;9.75;2.10;;;;;;;19.05;61.73;100920.34;5093953;28;20051;-60
2022/07/26 00:40:03;;;;;;;8.60;2.05;;;;;;;19.02;61.75;100926.94;5093882;28;20051;-60
2022/07/26 00:42:29;;;;;;;11.38;1.98;;;;;;;19.12;61.10;100918.47;5093554;28;20485;-61
2022/07/26 00:44:56;;;;;;;13.35;2.30;;;;;;;19.02;61.61;100926.13;5092235;28;20048;-60
2022/07/26 00:47:23;;;;;;;8.57;1.95;;;;;;;19.07;61.48;100926.34;5093632;28;20055;-62
2022/07/26 00:49:50;;;;;;;14.57;2.28;;;;;;;19.08;61.68;100927.97;5083766;28;20078;-62
2022/07/26 00:52:17;;;;;;;11.65;2.08;;;;;;;18.99;61.95;100932.72;5073074;28;20086;-62
2022/07/26 00:54:45;;;;;;;15.07;2.30;;;;;;;18.96;62.42;100930.44;5072531;28;20070;-60
2022/07/26 00:57:12;;;;;;;12.07;2.05;;;;;;;19.03;61.89;100922.38;5073386;28;20049;-62
2022/07/26 00:59:39;;;;;;;10.23;2.30;;;;;;;19.00;62.02;100931.69;5073087;28;20043;-60
2022/07/26 01:02:08;;;;;;;13.68;2.28;;;;;;;18.94;62.42;100927.97;5072319;28;20086;-60
2022/07/26 01:04:35;;;;;;;12.10;2.28;;;;;;;18.90;62.36;100921.34;5073276;28;20051;-60
2022/07/26 01:07:02;;;;;;;10.18;2.03;;;;;;;18.83;62.71;100927.72;5073390;28;20045;-60
2022/07/26 01:09:29;;;;;;;8.85;2.22;;;;;;;18.86;62.86;100921.94;5072947;28;20048;-60
2022/07/26 01:11:58;;;;;;;8.68;2.78;;;;;;;18.89;62.65;100927.75;5073169;28;20044;-60
2022/07/26 01:14:25;;;;;;;9.18;2.17;;;;;;;18.89;62.41;100922.38;5073277;28;20037;-60
2022/07/26 01:16:52;;;;;;;10.75;2.20;;;;;;;18.85;62.37;100928.38;5073162;28;20049;-60
2022/07/26 01:19:19;;;;;;;13.05;2.47;;;;;;;18.70;63.01;100923.97;5073307;28;20053;-60
2022/07/26 01:21:46;;;;;;;11.30;2.47;;;;;;;18.65;63.47;100926.44;5073117;28;20067;-60
2022/07/26 01:24:13;;;;;;;13.73;2.70;;;;;;;18.68;63.70;100920.66;5073070;28;20049;-60
2022/07/26 01:26:39;;;;;;;11.57;2.63;;;;;;;18.66;63.82;100932.63;5071904;28;20049;-60
2022/07/26 01:29:06;;;;;;;12.73;2.45;;;;;;;18.68;63.85;100927.88;5072961;28;20045;-60
2022/07/26 01:31:33;;;;;;;9.80;2.25;;;;;;;18.52;64.02;100934.44;5072948;28;20040;-60
2022/07/26 01:34:00;;;;;;;12.57;2.10;;;;;;;18.50;64.69;100926.59;5072488;28;20053;-60
2022/07/26 01:36:26;;;;;;;9.52;2.10;;;;;;;18.43;65.09;100928.44;5072695;28;20074;-60
2022/07/26 01:38:53;;;;;;;13.60;2.20;;;;;;;18.58;64.50;100925.59;5072654;28;20037;-60
2022/07/26 01:41:20;;;;;;;10.75;2.20;;;;;;;18.56;64.71;100925.78;5073020;28;20059;-60
2022/07/26 01:43:46;;;;;;;12.80;2.33;;;;;;;18.71;64.30;100927.47;5076338;28;20044;-60
2022/07/26 01:46:13;;;;;;;11.30;2.20;;;;;;;18.68;64.12;100925.19;5096020;28;20052;-60
2022/07/26 01:48:40;;;;;;;9.07;2.22;;;;;;;18.65;64.42;100931.81;5096871;28;20055;-60
2022/07/26 01:51:07;;;;;;;14.48;2.42;;;;;;;18.83;63.66;100928.56;5096689;28;20061;-60
2022/07/26 01:53:34;;;;;;;13.30;2.38;;;;;;;18.69;64.30;100927.69;5096792;28;20044;-60
2022/07/26 01:56:01;;;;;;;23.88;2.30;;;;;;;18.64;64.53;100932.00;5095284;28;20070;-60
2022/07/26 01:58:27;;;;;;;18.92;2.45;;;;;;;18.61;64.62;100938.63;5096800;28;20054;-60
2022/07/26 02:00:54;;;;;;;11.68;2.40;;;;;;;18.63;64.96;100938.41;5096407;28;20067;-60
2022/07/26 02:03:21;;;;;;;17.67;2.25;;;;;;;18.56;64.88;100938.41;5096104;28;20480;-60
2022/07/26 02:05:47;;;;;;;12.02;2.17;;;;;;;18.60;64.69;100945.84;5096684;28;20051;-60
2022/07/26 02:08:14;;;;;;;14.35;2.53;;;;;;;18.52;65.20;100945.19;5096329;28;20449;-60
2022/07/26 02:11:12;;;;;;;8.90;2.25;;;;;;;18.50;65.18;100950.78;5096631;28;20074;-60
2022/07/26 02:13:32;;;;;;;17.30;2.40;;;;;;;18.59;65.16;100946.03;5096289;28;20044;-60
2022/07/26 02:15:59;;;;;;;;;;;;;;;18.57;65.01;100948.09;5096646;28;20036;-60
2022/07/26 02:18:27;;;;;;;15.05;2.67;;;;;;;18.64;64.96;100942.75;5096174;28;19920;-60
2022/07/26 02:20:54;;;;;;;11.15;2.58;;;;;;;18.53;65.39;100946.84;5096360;28;20075;-60
2022/07/26 02:23:22;;;;;;;19.10;2.60;;;;;;;18.57;65.32;100948.09;5096339;28;20044;-60
2022/07/26 02:25:49;;;;;;;13.38;2.60;;;;;;;18.40;65.69;100943.09;5096341;28;20127;-60
2022/07/26 02:28:16;;;;;;;9.00;2.42;;;;;;;18.45;65.98;100947.03;5095824;28;20036;-60
2022/07/26 02:30:45;;;;;;;25.00;2.70;;;;;;;18.52;65.63;100946.03;5095752;28;20188;-60
2022/07/26 02:33:12;;;;;;;9.48;2.33;;;;;;;18.38;66.12;100949.69;5094247;28;20043;-60
2022/07/26 02:35:39;;;;;;;13.15;2.80;;;;;;;18.35;66.10;100947.41;5095857;28;20040;-60
2022/07/26 02:38:10;;;;;;;11.68;2.33;;;;;;;18.35;66.51;100944.72;5096166;28;20123;-60
2022/07/26 02:40:38;;;;;;;13.73;2.60;;;;;;;18.41;66.16;100947.44;5095609;28;20397;-61
2022/07/26 02:43:07;;;;;;;16.25;3.45;;;;;;;18.45;66.26;100950.53;5094813;28;20044;-60
2022/07/26 02:45:34;;;;;;;10.07;2.70;;;;;;;18.36;66.68;100952.56;5095401;28;20056;-60
2022/07/26 02:48:01;;;;;;;11.10;2.40;;;;;;;18.25;66.90;100952.34;5095855;28;20450;-60
2022/07/26 02:50:29;;;;;;;11.18;2.33;;;;;;;18.19;67.33;100952.09;5096994;28;20093;-61
2022/07/26 02:52:56;;;;;;;8.07;2.17;;;;;;;18.08;67.58;100954.50;5095340;28;20036;-60
2022/07/26 02:55:25;;;;;;;14.55;2.75;;;;;;;18.06;68.20;100953.88;5094223;28;20067;-61
2022/07/26 02:57:52;;;;;;;14.02;2.60;;;;;;;18.06;67.89;100951.19;5095555;28;20078;-60
2022/07/26 03:00:22;;;;;;;13.95;2.65;;;;;;;18.04;68.47;100959.44;5095483;28;20044;-60
2022/07/26 03:02:50;;;;;;;14.43;2.78;;;;;;;17.93;68.85;100962.69;5095579;28;20050;-60
2022/07/26 03:05:17;;;;;;;10.93;2.70;;;;;;;17.93;68.83;100974.22;5094715;28;20042;-60
2022/07/26 03:07:44;;;;;;;15.13;2.60;;;;;;;17.98;68.91;100968.28;5095469;28;20075;-61
2022/07/26 03:10:10;;;;;;;12.73;2.40;;;;;;;18.05;68.62;100968.34;5095440;28;20131;-60
2022/07/26 03:12:37;;;;;;;12.48;2.78;;;;;;;17.97;69.14;100969.28;5095361;28;20047;-61
2022/07/26 03:15:04;;;;;;;14.48;3.00;;;;;;;17.91;69.31;100960.19;5095000;28;20059;-60
2022/07/26 03:17:31;;;;;;;12.60;2.53;;;;;;;17.92;69.33;100956.50;5094941;28;20444;-60
2022/07/26 03:19:58;;;;;;;20.52;2.72;;;;;;;17.73;70.05;100963.34;5095241;28;20046;-60
2022/07/26 03:22:25;;;;;;;10.05;2.47;;;;;;;17.84;69.86;100976.22;5095274;28;20047;-60
2022/07/26 03:24:51;;;;;;;17.90;2.65;;;;;;;17.86;69.87;100970.66;5095052;28;20047;-60
2022/07/26 03:27:18;;;;;;;12.43;3.00;;;;;;;17.81;70.17;100970.44;5094951;28;20071;-60
2022/07/26 03:29:45;;;;;;;15.82;2.80;;;;;;;17.77;70.12;100972.66;5094948;28;20047;-60
2022/07/26 03:32:11;;;;;;;14.95;3.08;;;;;;;17.88;70.34;100979.34;5093921;28;20048;-60
2022/07/26 03:34:38;;;;;;;16.27;3.40;;;;;;;17.86;70.34;100975.22;5095004;28;20055;-60
2022/07/26 03:37:05;;;;;;;14.40;3.20;;;;;;;17.82;70.17;100978.25;5094888;28;20048;-60
2022/07/26 03:39:31;;;;;;;12.30;3.28;;;;;;;17.69;71.22;100985.41;5095518;28;20044;-61
2022/07/26 03:41:58;;;;;;;13.13;2.83;;;;;;;17.76;70.88;100981.72;5094694;28;20044;-60
2022/07/26 03:44:25;;;;;;;17.85;2.97;;;;;;;17.81;70.65;100989.22;5094224;28;20036;-60
2022/07/26 03:46:51;;;;;;;15.40;2.90;;;;;;;17.72;70.95;100983.16;5094637;28;20131;-60
2022/07/26 03:49:18;;;;;;;27.02;3.25;;;;;;;17.74;71.34;100989.16;5094561;28;20093;-61
2022/07/26 03:51:45;;;;;;;21.95;3.00;;;;;;;17.81;71.15;100992.72;5094573;28;20054;-60
2022/07/26 03:54:12;;;;;;;12.57;2.80;;;;;;;17.82;71.11;100998.91;5094524;28;20478;-60
2022/07/26 03:56:39;;;;;;;14.98;3.03;;;;;;;17.75;71.51;100998.84;5094245;28;20432;-60
2022/07/26 03:59:08;;;;;;;14.57;2.75;;;;;;;17.81;71.24;100994.56;5094419;28;20063;-60
2022/07/26 04:01:40;;;;;;;15.35;2.78;;;;;;;17.88;71.21;100997.31;5094079;28;20072;-60
2022/07/26 04:04:08;;;;;;;12.68;2.78;;;;;;;17.84;71.25;101000.38;5093825;28;20052;-60
2022/07/26 04:06:35;;;;;;;14.40;3.10;;;;;;;17.82;71.28;100997.03;5094058;28;20052;-60
2022/07/26 04:09:03;;;;;;;21.55;3.20;;;;;;;17.89;71.17;101005.19;5093533;28;20044;-60
2022/07/26 04:11:30;;;;;;;17.85;3.35;;;;;;;17.87;71.35;101001.88;5094230;28;20051;-60
2022/07/26 04:13:57;;;;;;;22.38;3.45;;;;;;;17.86;71.61;101010.94;5094240;28;20052;-60
2022/07/26 04:16:24;;;;;;;18.02;3.85;;;;;;;17.86;71.67;101010.09;5094132;28;20055;-60
2022/07/26 04:18:51;;;;;;;18.17;3.25;;;;;;;17.77;72.13;101012.06;5094144;28;20040;-60
2022/07/26 04:21:19;;;;;;;16.00;3.10;;;;;;;17.88;71.55;101013.41;5093731;28;20444;-60
2022/07/26 04:23:46;;;;;;;17.77;3.13;;;;;;;17.77;72.17;101006.69;5093731;28;20040;-60
2022/07/26 04:26:16;;;;;;;14.02;2.97;;;;;;;17.72;72.47;101009.13;5094120;28;20478;-60
2022/07/26 04:28:43;;;;;;;29.80;3.72;;;;;;;17.61;73.27;101000.63;5093755;28;20040;-60
2022/07/26 04:31:09;;;;;;;20.15;3.50;;;;;;;17.76;72.80;101005.06;5093064;28;20074;-60
2022/07/26 04:33:36;;;;;;;19.70;3.30;;;;;;;17.81;72.82;101016.88;5094031;28;20048;-60
2022/07/26 04:36:03;;;;;;;17.88;3.70;;;;;;;17.80;72.81;101015.19;5093701;28;20044;-60
2022/07/26 04:38:30;;;;;;;17.70;3.22;;;;;;;17.69;73.26;101023.78;5093876;28;20405;-61
2022/07/26 04:40:57;;;;;;;16.23;3.00;;;;;;;17.70;73.33;101019.22;5093581;28;20044;-62
2022/07/26 04:43:24;;;;;;;15.25;3.33;;;;;;;17.74;73.71;101015.16;5093522;28;20063;-60
2022/07/26 04:45:51;;;;;;;17.38;3.25;;;;;;;17.69;73.94;101020.28;5093291;28;20052;-60
2022/07/26 04:48:18;;;;;;;15.50;3.50;;;;;;;17.69;74.10;101025.63;5093635;28;20504;-60
2022/07/26 04:50:45;;;;;;;20.35;3.63;;;;;;;17.73;74.06;101019.69;5089686;28;20066;-61
2022/07/26 04:53:11;;;;;;;23.88;3.50;;;;;;;17.62;74.26;101021.03;5073200;28;20098;-61
2022/07/26 04:55:39;;;;;;;20.75;3.05;;;;;;;17.71;73.97;101027.09;5073358;28;20037;-61
2022/07/26 04:58:08;;;;;;;15.88;3.80;;;;;;;17.74;73.90;101023.22;5073194;28;20064;-60
2022/07/26 05:00:36;;;;;;;16.67;3.35;;;;;;;17.78;74.04;101027.97;5072973;28;20382;-60
2022/07/26 05:03:12;;;;;;;19.15;3.65;;;;;;;17.72;73.96;101020.72;5073632;28;20113;-60
2022/07/26 05:05:39;;;;;;;25.40;3.72;;;;;;;17.73;74.52;101027.72;5072594;28;20093;-61
2022/07/26 05:08:05;;;;;;;19.13;3.58;;;;;;;17.72;74.68;101019.88;5073280;28;20064;-60
2022/07/26 05:10:35;;;;;;;21.52;3.72;;;;;;;17.87;74.12;101028.69;5073249;28;20048;-60
2022/07/26 05:13:04;;;;;;;27.17;3.72;;;;;;;17.80;74.49;101023.25;5073022;28;20098;-60
2022/07/26 05:15:32;;;;;;;16.13;3.80;;;;;;;17.71;74.85;101024.41;5073027;28;20127;-61
2022/07/26 05:18:02;;;;;;;22.63;3.95;;;;;;;17.75;74.92;101025.66;5073254;28;20040;-60
2022/07/26 05:20:29;;;;;;;23.83;3.97;;;;;;;17.63;75.43;101032.63;5077161;28;20048;-61
2022/07/26 05:22:57;;;;;;;24.95;3.78;;;;;;;17.66;75.60;101026.84;5077202;28;20090;-60
2022/07/26 05:25:24;;;;;;;24.73;4.22;;;;;;;17.77;75.27;101030.84;5077286;28;20056;-60
2022/07/26 05:27:52;;;;;;;18.83;3.72;;;;;;;17.74;75.40;101029.41;5076888;28;20059;-60
2022/07/26 05:30:19;;;;;;;21.90;4.15;;;;;;;17.79;75.50;101031.47;5076877;28;20132;-60
2022/07/26 05:32:46;;;;;;;27.98;3.55;;;;;;;17.78;75.68;101029.84;5076863;28;20086;-60
2022/07/26 05:35:13;;;;;;;22.88;4.10;;;;;;;17.86;75.42;101028.88;5076345;28;20071;-61
2022/07/26 05:37:40;;;;;;;27.17;4.40;;;;;;;17.92;75.13;101022.72;5076900;28;20513;-60
2022/07/26 05:40:07;;;;;;;29.02;4.72;;;;;;;17.91;75.16;101024.59;5076882;28;20048;-60
2022/07/26 05:42:34;;;;;;;22.35;3.72;;;;;;;17.80;75.46;101031.28;5076600;28;20102;-61
2022/07/26 05:45:02;;;;;;;23.80;3.85;;;;;;;17.78;76.18;101036.03;5090360;28;20056;-60
2022/07/26 05:47:28;;;;;;;22.73;4.47;;;;;;;17.85;75.59;101022.69;5096551;28;20071;-61
2022/07/26 05:49:55;;;;;;;21.98;3.83;;;;;;;17.73;76.03;101029.59;5096836;28;20052;-61
2022/07/26 05:52:22;;;;;;;24.23;4.10;;;;;;;17.84;76.08;101035.25;5096546;28;20051;-60
2022/07/26 05:54:49;;;;;;;18.55;4.32;;;;;;;17.96;75.46;101032.88;5096895;28;20119;-60
2022/07/26 05:57:15;;;;;;;20.92;4.40;;;;;;;17.77;76.30;101030.84;5096464;28;20074;-60
2022/07/26 05:59:43;;;;;;;17.08;4.00;;;;;;;17.88;76.42;101040.25;5096535;28;20075;-60
2022/07/26 06:02:09;;;;;;;34.20;4.68;;;;;;;17.85;76.58;101036.13;5096623;28;20076;-60
2022/07/26 06:04:36;;;;;;;24.63;4.38;;;;;;;17.92;76.25;101034.31;5095867;28;20044;-61
2022/07/26 06:07:03;;;;;;;19.25;4.40;;;;;;;17.94;76.10;101040.31;5096748;28;20500;-60
2022/07/26 06:09:30;;;;;;;20.17;4.20;;;;;;;17.87;76.55;101033.25;5096406;28;20055;-60
2022/07/26 06:11:57;;;;;;;19.73;4.20;;;;;;;17.98;76.21;101046.13;5096521;28;20044;-61
2022/07/26 06:14:23;;;;;;;32.10;5.03;;;;;;;17.82;76.62;101041.84;5095179;28;20489;-60
2022/07/26 06:16:50;;;;;;;28.85;4.32;;;;;;;17.77;77.23;101036.22;5096149;28;20074;-60
2022/07/26 06:19:17;;;;;;;27.13;4.72;;;;;;;17.95;76.42;101043.81;5096365;28;20440;-61
2022/07/26 06:21:44;;;;;;;26.00;5.18;;;;;;;18.00;76.37;101052.94;5096361;28;20044;-60
2022/07/26 06:24:12;;;;;;;30.15;5.03;;;;;;;17.94;76.70;101048.38;5096079;28;20501;-62
2022/07/26 06:26:39;;;;;;;26.63;4.20;;;;;;;18.06;76.39;101047.81;5095973;28;20036;-61
2022/07/26 06:29:06;;;;;;;27.67;5.13;;;;;;;17.98;76.58;101052.31;5096051;28;20040;-60
2022/07/26 06:31:32;;;;;;;20.55;5.10;;;;;;;17.97;76.95;101060.56;5094155;28;20410;-60
2022/07/26 06:33:59;;;;;;;21.65;4.70;;;;;;;17.99;76.50;101058.50;5095892;28;20461;-60
2022/07/26 06:36:26;;;;;;;26.75;4.50;;;;;;;18.12;76.33;101063.13;5095963;28;20040;-60
2022/07/26 06:38:56;;;;;;;21.90;4.00;;;;;;;18.13;76.52;101070.16;5095909;28;20080;-61
2022/07/26 06:41:22;;;;;;;27.88;4.70;;;;;;;18.14;76.53;101072.66;5095920;28;20048;-61
2022/07/26 06:43:49;;;;;;;26.05;4.25;;;;;;;18.13;76.20;101071.00;5095883;28;20044;-60
2022/07/26 06:46:16;;;;;;;25.90;4.95;;;;;;;18.10;76.50;101071.41;5095347;28;20109;-61
2022/07/26 06:48:43;;;;;;;20.98;4.80;;;;;;;18.30;75.71;101076.06;5095433;28;20050;-61
2022/07/26 06:51:10;;;;;;;22.42;4.60;;;;;;;18.31;75.66;101081.25;5093612;28;20071;-62
2022/07/26 06:53:37;;;;;;;25.65;5.20;;;;;;;18.35;75.46;101082.50;5077776;28;20090;-61
2022/07/26 06:56:04;;;;;;;27.25;5.55;;;;;;;18.40;75.30;101081.91;5077884;28;20094;-53
2022/07/26 06:58:31;;;;;;;28.15;5.45;;;;;;;18.43;75.42;101081.53;5074505;28;20066;-54
2022/07/26 07:00:59;;;;;;;24.48;5.00;;;;;;;18.48;75.41;101086.28;5092509;28;20486;-55
2022/07/26 07:03:26;;;;;;;23.52;5.50;;;;;;;18.54;75.10;101089.03;5110646;28;20050;-55
2022/07/26 07:05:52;;;;;;;22.02;5.43;;;;;;;18.51;75.03;101083.22;5105137;28;20067;-54
2022/07/26 07:08:21;;;;;;;26.23;5.10;;;;;;;18.60;74.78;101084.72;5102796;28;20052;-53
2022/07/26 07:10:48;;;;;;;27.70;5.63;;;;;;;18.54;75.32;101093.59;5094337;28;20094;-56
2022/07/26 07:13:15;;;;;;;33.08;6.55;;;;;;;18.54;75.22;101090.91;5093326;28;20044;-53
2022/07/26 07:15:42;;;;;;;30.85;7.78;;;;;;;18.59;74.75;101094.63;5095498;28;20044;-53
2022/07/26 07:18:09;;;;;;;35.40;6.45;;;;;;;18.71;74.39;101086.84;5101510;28;20394;-53
2022/07/26 07:20:37;;;;;;;26.48;5.57;;;;;;;18.71;74.97;101091.38;5103027;28;20558;-54
2022/07/26 07:23:04;;;;;;;29.58;5.72;;;;;;;18.92;74.33;101093.19;5103344;28;20054;-54
2022/07/26 07:25:30;;;;;;;28.65;5.50;;;;;;;19.04;73.21;101094.22;5106361;28;20039;-53
2022/07/26 07:27:58;;;;;;;25.02;5.45;;;;;;;19.05;73.29;101112.03;5091885;28;20047;-54
2022/07/26 07:30:26;;;;;;;28.92;5.75;;;;;;;19.02;74.09;101108.91;5106063;28;20795;-53
2022/07/26 07:32:54;;;;;;;32.75;5.35;;;;;;;19.04;73.49;101107.69;5105092;28;20493;-54
2022/07/26 07:35:21;;;;;;;26.88;5.65;;;;;;;19.12;73.08;101117.44;5097547;28;20036;-53
2022/07/26 07:37:47;;;;;;;26.40;5.90;;;;;;;19.13;73.31;101116.41;5099037;28;20374;-54
2022/07/26 07:40:14;;;;;;;26.70;5.47;;;;;;;19.07;73.97;101119.91;5109525;28;20062;-53
2022/07/26 07:42:41;;;;;;;19.95;5.32;;;;;;;19.18;73.77;101116.63;5111036;28;20493;-54
2022/07/26 07:45:10;;;;;;;29.23;6.45;;;;;;;19.30;72.54;101114.16;5112488;28;20117;-53
2022/07/26 07:47:36;;;;;;;29.20;6.50;;;;;;;19.31;72.71;101116.66;5113660;28;20093;-54
2022/07/26 07:50:04;;;;;;;22.70;6.00;;;;;;;19.36;72.50;101124.97;5113812;28;20451;-54
2022/07/26 07:52:31;;;;;;;26.00;5.75;;;;;;;19.35;72.53;101120.59;5075783;28;20060;-54
2022/07/26 07:54:57;;;;;;;19.58;5.30;;;;;;;19.29;73.38;101124.09;5100496;28;20039;-54
2022/07/26 07:57:37;;;;;;;25.63;6.55;;;;;;;19.28;72.56;101129.69;5112078;28;20071;-54
2022/07/26 08:00:05;;;;;;;19.80;5.82;;;;;;;19.23;72.39;101127.63;5104120;28;20067;-53
2022/07/26 08:02:48;;;;;;;20.23;5.65;;;;;;;19.40;72.39;101132.63;5126925;27;20408;-53
2022/07/26 08:05:16;;;;;;;28.65;6.25;;;;;;;19.41;73.01;101129.75;5128975;28;20107;-53
2022/07/26 08:07:43;;;;;;;27.77;6.38;;;;;;;19.49;72.37;101124.16;5123647;27;20035;-54
2022/07/26 08:10:10;;;;;;;20.88;6.15;;;;;;;19.60;72.06;101132.69;5110642;28;20496;-52
2022/07/26 08:12:36;;;;;;;29.33;6.20;;;;;;;19.66;72.02;101129.16;5114433;28;20044;-55
2022/07/26 08:15:04;;;;;;;26.00;6.63;;;;;;;19.88;71.01;101125.28;5119912;27;20051;-54
2022/07/26 08:17:31;;;;;;;25.50;6.63;;;;;;;20.06;70.42;101121.13;5123097;27;20038;-54
2022/07/26 08:19:58;;;;;;;22.50;6.10;;;;;;;20.13;69.63;101124.66;5116207;27;20135;-54
2022/07/26 08:22:25;;;;;;;19.95;5.88;;;;;;;20.13;69.50;101117.41;5126907;28;20035;-54
2022/07/26 08:24:52;;;;;;;23.38;6.15;;;;;;;20.07;69.75;101126.31;5114240;28;20047;-55
2022/07/26 08:27:19;;;;;;;21.55;5.90;;;;;;;19.98;69.96;101118.66;5101958;28;20367;-55
2022/07/26 08:29:45;;;;;;;24.35;5.85;;;;;;;20.11;70.11;101121.34;5117334;28;20413;-54
2022/07/26 08:32:12;;;;;;;24.15;6.07;;;;;;;20.18;69.54;101126.75;5123266;28;20039;-54
2022/07/26 08:34:39;;;;;;;26.30;6.70;;;;;;;20.27;69.06;101122.78;5122781;27;20055;-55
2022/07/26 08:37:06;;;;;;;29.48;7.20;;;;;;;20.28;68.30;101125.28;5116109;27;20040;-54
2022/07/26 08:39:42;;;;;;;20.70;5.78;;;;;;;20.31;67.85;101126.72;5120852;27;20044;-54
2022/07/26 08:42:14;;;;;;;20.38;5.97;;;;;;;20.20;68.29;101128.19;5118994;28;20036;-55
2022/07/26 08:44:43;;;;;;;26.92;5.85;;;;;;;20.30;67.10;101127.75;5123226;28;20044;-54
2022/07/26 08:47:12;;;;;;;22.63;6.05;;;;;;;20.37;68.23;101125.88;5119564;27;20066;-54
2022/07/26 08:49:39;;;;;;;28.17;6.55;;;;;;;20.45;66.84;101127.53;5125619;27;20047;-54
2022/07/26 08:52:08;;;;;;;21.63;5.93;;;;;;;20.50;66.34;101130.41;5115214;27;20512;-54
2022/07/26 08:54:35;;;;;;;21.48;5.85;;;;;;;20.53;65.82;101140.78;5122235;28;20043;-55
2022/07/26 08:57:02;;;;;;;22.23;5.50;;;;;;;20.57;65.68;101139.31;5126018;27;20040;-55
2022/07/26 08:59:29;;;;;;;18.85;5.45;;;;;;;20.56;64.89;101137.66;5116168;28;20040;-55
2022/07/26 09:02:01;;;;;;;20.48;5.03;;;;;;;20.71;64.90;101135.56;5110853;28;20085;-55
2022/07/26 09:04:30;;;;;;;17.70;5.47;;;;;;;20.96;63.56;101129.50;5123207;27;20044;-55
2022/07/26 09:07:09;;;;;;;20.60;5.53;;;;;;;21.01;63.43;101123.44;5129323;28;20048;-55
2022/07/26 09:09:54;;;;;;;22.40;5.65;;;;;;;21.00;61.92;101128.00;5129573;27;20043;-55
2022/07/26 09:12:23;;;;;;;20.35;5.47;;;;;;;20.82;62.50;101120.63;5123019;28;20079;-55
2022/07/26 09:14:50;;;;;;;20.27;5.60;;;;;;;;;;5113720;28;20546;-54
2022/07/26 09:17:19;;;;;;;19.33;5.60;;;;;;;21.26;60.94;101137.84;5099279;28;20044;-54
2022/07/26 09:20:08;;;;;;;32.67;14.75;;;;;;;21.19;60.63;101131.69;5105840;28;20068;-54
2022/07/26 09:22:37;;;;;;;28.23;9.63;;;;;;;21.19;60.44;101133.53;5112383;28;20389;-55
2022/07/26 09:25:19;;;;;;;23.27;7.70;;;;;;;21.29;60.16;101128.50;5099678;28;20040;-53
2022/07/26 09:27:46;;;;;;;16.88;5.68;;;;;;;21.45;59.78;101138.81;5115024;28;20122;-56
2022/07/26 09:30:14;;;;;;;17.95;5.60;;;;;;;21.66;60.29;101132.25;5097413;28;20485;-54
2022/07/26 09:32:55;;;;;;;25.92;6.07;;;;;;;21.74;59.44;101136.56;5112474;28;20401;-55
2022/07/26 09:35:24;;;;;;;18.38;6.05;;;;;;;21.56;59.25;101141.88;5088888;28;20084;-54
2022/07/26 09:38:13;;;;;;;17.08;5.47;;;;;;;21.71;59.69;101134.31;5100953;28;20126;-55
2022/07/26 09:40:40;;;;;;;18.13;5.53;;;;;;;21.65;58.28;101146.81;5097303;28;20051;-55
2022/07/26 09:43:07;;;;;;;14.27;5.55;;;;;;;21.44;59.09;101134.44;5097145;28;20032;-54
2022/07/26 09:45:35;;;;;;;19.80;5.75;;;;;;;21.49;59.73;101135.69;5092436;28;20557;-61
2022/07/26 09:48:02;;;;;;;18.00;5.55;;;;;;;21.57;59.11;101143.53;5098476;28;20130;-61
2022/07/26 09:50:31;;;;;;;18.50;5.80;;;;;;;21.56;59.99;101136.50;5098587;28;20498;-60
2022/07/26 09:53:07;;;;;;;17.13;5.72;;;;;;;21.59;60.50;101141.44;5109771;28;20085;-60
2022/07/26 09:58:20;;;;;;;19.80;5.88;;;;;;;21.52;59.04;101146.91;5167363;27;20172;-60
2022/07/26 10:00:47;;;;;;;22.05;4.90;;;;;;;21.40;59.44;101145.88;5149459;27;20134;-61
2022/07/26 10:03:14;;;;;;;16.63;4.90;;;;;;;21.36;59.18;101150.06;5126664;27;20069;-60
2022/07/26 10:05:41;;;;;;;18.63;4.50;;;;;;;21.20;58.55;101162.19;5116029;27;20054;-60
2022/07/26 10:08:09;;;;;;;12.00;4.07;;;;;;;21.23;58.13;101169.84;5132305;27;20055;-61
2022/07/26 10:10:49;;;;;;;19.50;3.97;;;;;;;21.03;57.83;101159.13;5149550;27;20039;-60
2022/07/26 10:13:16;;;;;;;17.80;4.45;;;;;;;21.03;58.10;101159.97;5146327;27;20055;-61
2022/07/26 10:15:46;;;;;;;13.60;4.20;;;;;;;20.98;59.60;101161.63;5144270;27;20064;-61
2022/07/26 10:18:39;;;;;;;33.47;5.10;;;;;;;21.22;59.37;101169.00;5144626;27;20073;-60
2022/07/26 10:21:24;;;;;;;19.70;5.32;;;;;;;21.19;60.30;101164.06;5112564;27;20404;-61
2022/07/26 10:23:57;;;;;;;16.10;5.10;;;;;;;21.38;60.10;101159.59;5150328;27;20070;-60
2022/07/26 10:29:19;;;;;;;21.05;4.63;;;;;;;21.71;57.97;101157.78;5093163;27;20873;-60
2022/07/26 10:31:48;;;;;;;15.82;4.90;;;;;;;22.02;57.93;101165.03;5081661;28;20486;-61
2022/07/26 10:34:36;;;;;;;27.00;4.72;;;;;;;22.04;57.23;101162.94;5080713;28;20037;-60
2022/07/26 10:37:05;;;;;;;15.93;4.65;;;;;;;22.19;56.46;101163.44;5086129;28;20032;-60
2022/07/26 10:39:33;;;;;;;13.52;4.20;;;;;;;22.58;55.78;101156.03;5096861;28;20370;-61
2022/07/26 10:42:02;;;;;;;13.68;4.05;;;;;;;22.76;54.04;101155.22;5089064;28;20052;-61
2022/07/26 10:44:32;;;;;;;11.85;3.97;;;;;;;22.86;53.30;101157.38;5078436;28;20044;-61
2022/07/26 10:49:42;;;;;;;13.07;3.85;;;;;;;23.36;52.08;101162.63;5110254;27;20385;-61
2022/07/26 10:52:15;;;;;;;13.18;3.85;;;;;;;23.32;50.84;101155.19;5109592;28;20036;-60
2022/07/26 10:55:03;;;;;;;13.27;3.53;;;;;;;23.69;49.86;101161.31;5110413;28;20036;-59
2022/07/26 10:57:34;;;;;;;19.50;4.72;;;;;;;23.55;50.97;101165.28;5104624;28;20120;-56
2022/07/26 11:00:07;;;;;;;14.98;4.32;;;;;;;23.51;50.92;101169.50;5107259;28;20498;-54
2022/07/26 11:02:35;;;;;;;14.60;3.67;;;;;;;23.10;51.79;101166.50;5108236;28;20071;-60
2022/07/26 11:05:15;;;;;;;14.18;3.50;;;;;;;22.93;52.37;101177.06;5104931;28;20078;-60
2022/07/26 11:08:05;;;;;;;14.25;3.60;;;;;;;22.38;54.58;101175.13;5076424;28;20378;-60
2022/07/26 11:10:36;;;;;;;15.77;4.00;;;;;;;22.05;56.62;101181.63;5109479;28;20044;-60
2022/07/26 11:13:08;;;;;;;11.70;3.72;;;;;;;21.81;58.02;101179.72;5109178;28;20063;-61
2022/07/26 11:15:35;;;;;;;;;;;;;;;21.67;58.91;101185.19;5109810;28;20036;-60
2022/07/26 11:18:09;;;;;;;14.10;3.75;;;;;;;21.88;58.54;101198.56;5109817;28;19920;-61
2022/07/26 11:20:36;;;;;;;14.07;3.20;;;;;;;21.76;59.19;101195.75;5109357;28;20036;-60
2022/07/26 11:23:03;;;;;;;11.63;3.10;;;;;;;21.56;59.35;101206.66;5109490;28;20485;-60
2022/07/26 11:25:30;;;;;;;7.68;2.80;;;;;;;21.32;60.05;101214.44;5109536;28;20052;-60
2022/07/26 11:28:00;;;;;;;8.00;2.58;;;;;;;21.39;61.20;101212.53;5109457;28;20597;-60
2022/07/26 11:30:27;;;;;;;5.88;2.35;;;;;;;21.75;59.66;101215.69;5109409;28;20401;-60
2022/07/26 11:32:57;;;;;;;6.57;2.35;;;;;;;22.30;59.04;101215.94;5109403;28;20052;-61